Time;durP1;ratioP1;P1;durP2;ratioP2;P2;SDS_P1;SDS_P2;PMS_P1;PMS_P2;Temp;Humidity;BMP_temperature;BMP_pressure;BME280_temperature;BME280_humidity;BME280_pressure;Samples;Min_cycle;Max_cycle;Signal;HPM_P1;HPM_P2
2023/01/31 00:01:17;;;;;;;7.35;1.70;;;;;;;;;;5024136;28;20037;-82
2023/01/31 00:03:43;;;;;;;4.40;1.17;;;;;;;;;;5019837;28;20483;-84
2023/01/31 00:06:19;;;;;;;10.88;1.80;;;;;;;;;;5027913;28;20159;-84
2023/01/31 00:08:46;;;;;;;7.97;1.77;;;;;;;;;;5046748;28;20029;-85
2023/01/31 00:11:13;;;;;;;6.67;1.00;;;;;;;;;;5045929;28;20041;-84
2023/01/31 00:13:39;;;;;;;6.30;1.38;;;;;;;;;;5029153;28;20125;-84
2023/01/31 00:16:06;;;;;;;8.65;1.48;;;;;;;;;;5045401;28;20040;-84
2023/01/31 00:18:31;;;;;;;5.77;1.10;;;;;;;;;;5036723;28;20445;-86
2023/01/31 00:20:56;;;;;;;6.32;1.83;;;;;;;;;;5044922;28;20048;-85
2023/01/31 00:23:22;;;;;;;5.82;1.60;;;;;;;;;;5021109;28;20440;-83
2023/01/31 00:25:47;;;;;;;9.70;1.58;;;;;;;;;;5025471;28;20033;-85
2023/01/31 00:28:13;;;;;;;8.32;1.52;;;;;;;;;;5046071;28;20064;-83
2023/01/31 00:30:38;;;;;;;9.00;1.23;;;;;;;;;;5053344;28;20036;-84
2023/01/31 00:33:04;;;;;;;9.02;1.50;;;;;;;;;;5037999;28;20064;-84
2023/01/31 00:35:29;;;;;;;6.13;1.20;;;;;;;;;;5030976;28;20536;-84
2023/01/31 00:37:54;;;;;;;8.23;1.40;;;;;;;;;;5044423;28;20029;-83
2023/01/31 00:40:20;;;;;;;5.35;1.35;;;;;;;;;;5045194;28;20029;-84
2023/01/31 00:42:45;;;;;;;7.20;1.30;;;;;;;;;;5046005;28;20119;-84
2023/01/31 00:45:11;;;;;;;7.93;1.45;;;;;;;;;;5055218;28;20461;-83
2023/01/31 00:47:37;;;;;;;5.68;1.63;;;;;;;;;;5046487;28;20448;-84
2023/01/31 00:50:02;;;;;;;8.50;1.70;;;;;;;;;;5030166;28;20124;-85
2023/01/31 00:52:28;;;;;;;3.60;1.02;;;;;;;;;;5044492;28;20044;-84
2023/01/31 00:54:53;;;;;;;7.72;1.48;;;;;;;;;;5045756;28;20083;-84
2023/01/31 00:57:19;;;;;;;9.73;1.55;;;;;;;;;;5034609;28;20043;-84
2023/01/31 00:59:44;;;;;;;5.05;1.38;;;;;;;;;;5044504;28;20044;-83
2023/01/31 01:02:10;;;;;;;8.20;1.70;;;;;;;;;;5043169;28;20036;-84
2023/01/31 01:04:35;;;;;;;8.18;1.35;;;;;;;;;;5028854;28;20043;-85
2023/01/31 01:07:01;;;;;;;7.38;1.38;;;;;;;;;;5028133;28;20039;-84
2023/01/31 01:09:26;;;;;;;4.82;0.90;;;;;;;;;;5032634;28;20567;-83
2023/01/31 01:11:52;;;;;;;7.45;1.25;;;;;;;;;;5027991;28;20467;-84
2023/01/31 01:14:17;;;;;;;9.27;1.80;;;;;;;;;;5028951;28;20366;-83
2023/01/31 01:16:43;;;;;;;8.38;1.90;;;;;;;;;;5020839;28;20075;-83
2023/01/31 01:19:16;;;;;;;5.72;1.27;;;;;;;;;;5030683;28;20055;-84
2023/01/31 01:21:43;;;;;;;8.48;1.50;;;;;;;;;;5019609;28;20037;-84
2023/01/31 01:24:13;;;;;;;5.93;1.40;;;;;;;;;;5045620;28;20097;-82
2023/01/31 01:26:38;;;;;;;11.25;1.35;;;;;;;;;;5028313;28;20033;-84
2023/01/31 01:29:03;;;;;;;10.35;1.65;;;;;;;;;;5034433;28;20045;-83
2023/01/31 01:31:32;;;;;;;8.63;1.55;;;;;;;;;;5021158;28;20051;-83
2023/01/31 01:34:06;;;;;;;7.93;1.20;;;;;;;;;;5020164;28;20063;-84
2023/01/31 01:36:36;;;;;;;6.45;1.20;;;;;;;;;;5038388;28;20037;-84
2023/01/31 01:39:03;;;;;;;6.43;0.95;;;;;;;;;;5019677;28;20043;-82
2023/01/31 01:41:32;;;;;;;9.57;1.60;;;;;;;;;;5043212;28;20037;-84
2023/01/31 01:43:58;;;;;;;11.95;2.40;;;;;;;;;;5041575;28;20033;-84
2023/01/31 01:46:38;;;;;;;8.65;1.58;;;;;;;;;;5033460;28;20032;-84
2023/01/31 01:49:15;;;;;;;5.80;1.15;;;;;;;;;;5037448;28;20090;-84
2023/01/31 01:51:41;;;;;;;6.80;1.45;;;;;;;;;;5026696;28;20487;-84
2023/01/31 01:54:12;;;;;;;10.25;1.98;;;;;;;;;;5044538;28;20040;-83
2023/01/31 01:56:40;;;;;;;4.13;1.00;;;;;;;;;;5041372;28;20037;-84
2023/01/31 01:59:14;;;;;;;5.35;1.33;;;;;;;;;;5044283;28;20384;-83
2023/01/31 02:01:39;;;;;;;9.13;1.45;;;;;;;;;;5019517;28;20110;-84
2023/01/31 02:04:07;;;;;;;7.80;1.13;;;;;;;;;;5037787;28;20029;-84
2023/01/31 02:06:33;;;;;;;6.53;1.33;;;;;;;;;;5029721;28;20055;-85
2023/01/31 02:08:58;;;;;;;8.02;0.90;;;;;;;;;;5026319;28;20140;-84
2023/01/31 02:11:27;;;;;;;5.50;1.00;;;;;;;;;;5025345;28;20428;-84
2023/01/31 02:13:57;;;;;;;6.70;1.08;;;;;;;;;;5034150;28;20513;-84
2023/01/31 02:16:22;;;;;;;6.15;1.38;;;;;;;;;;5044340;28;20086;-85
2023/01/31 02:18:48;;;;;;;7.07;1.10;;;;;;;;;;5033457;28;20492;-84
2023/01/31 02:21:37;;;;;;;4.75;1.00;;;;;;;;;;5024275;28;20060;-85
2023/01/31 02:24:15;;;;;;;5.18;1.20;;;;;;;;;;5051964;28;20037;-85
2023/01/31 02:26:56;;;;;;;7.22;1.55;;;;;;;;;;5035902;28;20040;-85
2023/01/31 02:29:56;;;;;;;6.50;1.38;;;;;;;;;;5038129;28;20511;-84
2023/01/31 02:32:43;;;;;;;7.10;1.60;;;;;;;;;;5052397;28;20516;-84
2023/01/31 02:35:16;;;;;;;5.80;1.20;;;;;;;;;;5051513;28;20044;-85
2023/01/31 02:38:15;;;;;;;5.35;1.13;;;;;;;;;;5035970;28;20286;-83
2023/01/31 02:41:02;;;;;;;8.15;1.13;;;;;;;;;;5005394;28;20407;-83
2023/01/31 02:46:55;;;;;;;4.00;1.00;;;;;;;;;;5039826;28;20556;-85
2023/01/31 02:49:35;;;;;;;3.75;0.77;;;;;;;;;;5044710;28;20041;-85
2023/01/31 02:52:17;;;;;;;6.13;1.08;;;;;;;;;;5037437;28;20041;-85
2023/01/31 02:57:44;;;;;;;6.75;0.93;;;;;;;;;;5038885;28;21013;-85
2023/01/31 03:00:10;;;;;;;13.20;1.73;;;;;;;;;;5030350;28;20040;-84
2023/01/31 03:02:36;;;;;;;13.75;1.90;;;;;;;;;;5028461;28;20068;-85
2023/01/31 03:05:02;;;;;;;7.95;1.20;;;;;;;;;;5038342;28;20511;-85
2023/01/31 03:07:32;;;;;;;5.03;1.50;;;;;;;;;;5030504;28;20120;-84
2023/01/31 03:10:13;;;;;;;4.97;1.05;;;;;;;;;;5031224;28;20048;-85
2023/01/31 03:13:10;;;;;;;6.32;1.17;;;;;;;;;;5036662;28;20098;-85
2023/01/31 03:18:43;;;;;;;6.15;1.08;;;;;;;;;;5045531;28;20039;-84
2023/01/31 03:21:13;;;;;;;8.38;1.38;;;;;;;;;;5029643;28;20051;-84
2023/01/31 03:23:40;;;;;;;4.93;0.90;;;;;;;;;;5036998;28;20610;-84
2023/01/31 03:26:06;;;;;;;3.55;1.10;;;;;;;;;;5027658;28;20039;-86
2023/01/31 03:28:35;;;;;;;7.28;1.50;;;;;;;;;;5030215;28;20827;-85
2023/01/31 03:31:13;;;;;;;4.70;1.00;;;;;;;;;;5029057;28;20152;-85
2023/01/31 03:33:39;;;;;;;;;;;;;;;;;;5025362;28;20040;-84
2023/01/31 03:36:48;;;;;;;8.00;1.98;;;;;;;;;;5027979;28;19962;-84
2023/01/31 03:39:38;;;;;;;4.15;0.90;;;;;;;;;;5016141;28;20411;-85
2023/01/31 03:42:20;;;;;;;5.97;1.02;;;;;;;;;;5046469;28;20037;-85
2023/01/31 03:44:49;;;;;;;4.82;1.20;;;;;;;;;;5029611;28;20424;-83
2023/01/31 03:47:19;;;;;;;4.85;1.52;;;;;;;;;;5040468;28;20063;-85
2023/01/31 03:49:45;;;;;;;5.30;1.23;;;;;;;;;;5053123;28;20035;-87
2023/01/31 03:52:13;;;;;;;6.25;1.17;;;;;;;;;;5036591;28;20041;-84
2023/01/31 03:54:40;;;;;;;;;;;;;;;;;;5030416;28;20032;-84
2023/01/31 03:57:17;;;;;;;6.82;1.45;;;;;;;;;;5017416;28;19991;-84
2023/01/31 03:59:47;;;;;;;8.82;1.33;;;;;;;;;;5023274;28;20495;-83
2023/01/31 04:02:15;;;;;;;7.47;1.10;;;;;;;;;;5036601;28;20029;-83
2023/01/31 04:04:51;;;;;;;6.70;1.13;;;;;;;;;;5047052;28;20512;-84
2023/01/31 04:07:16;;;;;;;10.43;2.17;;;;;;;;;;5033940;28;20505;-83
2023/01/31 04:09:42;;;;;;;8.63;1.40;;;;;;;;;;5038373;28;20124;-83
2023/01/31 04:12:11;;;;;;;6.05;1.33;;;;;;;;;;5028101;28;20040;-84
2023/01/31 04:14:37;;;;;;;5.95;1.02;;;;;;;;;;5028565;28;20071;-84
2023/01/31 04:17:02;;;;;;;4.07;1.10;;;;;;;;;;5017547;28;20053;-84
2023/01/31 04:19:27;;;;;;;7.45;2.03;;;;;;;;;;5047038;28;20051;-84
2023/01/31 04:21:53;;;;;;;6.93;1.23;;;;;;;;;;5046303;28;20044;-84
2023/01/31 04:24:18;;;;;;;10.15;1.42;;;;;;;;;;5030943;28;20032;-84
2023/01/31 04:26:44;;;;;;;6.00;1.02;;;;;;;;;;5050539;28;20028;-84
2023/01/31 04:29:09;;;;;;;7.97;1.52;;;;;;;;;;5022095;28;20331;-85
2023/01/31 04:31:35;;;;;;;6.35;1.02;;;;;;;;;;5044742;28;20045;-88
2023/01/31 04:34:00;;;;;;;5.55;1.33;;;;;;;;;;5030598;28;20040;-91
2023/01/31 04:36:26;;;;;;;7.68;1.55;;;;;;;;;;5029765;28;20356;-87
2023/01/31 04:38:51;;;;;;;3.45;0.90;;;;;;;;;;5020685;28;20039;-87
2023/01/31 04:41:17;;;;;;;5.50;1.23;;;;;;;;;;5044174;28;20040;-88
2023/01/31 04:43:42;;;;;;;10.10;1.60;;;;;;;;;;5033262;28;20029;-88
2023/01/31 04:46:07;;;;;;;6.43;1.50;;;;;;;;;;5021532;28;20078;-89
2023/01/31 04:48:33;;;;;;;7.50;1.10;;;;;;;;;;5028425;28;20047;-89
2023/01/31 04:50:58;;;;;;;6.15;1.17;;;;;;;;;;5028260;28;20064;-87
2023/01/31 04:53:24;;;;;;;9.18;1.30;;;;;;;;;;5021244;28;20043;-87
2023/01/31 04:55:53;;;;;;;5.15;1.20;;;;;;;;;;5035763;28;20054;-86
2023/01/31 04:58:19;;;;;;;11.98;1.42;;;;;;;;;;5035631;28;20039;-87
2023/01/31 05:00:44;;;;;;;8.98;1.35;;;;;;;;;;5028630;28;20042;-86
2023/01/31 05:03:10;;;;;;;3.88;0.98;;;;;;;;;;5029520;28;20036;-85
2023/01/31 05:05:35;;;;;;;5.90;1.02;;;;;;;;;;5014393;28;20036;-85
2023/01/31 05:08:00;;;;;;;5.93;1.35;;;;;;;;;;5027654;28;20052;-86
2023/01/31 05:10:26;;;;;;;7.65;1.02;;;;;;;;;;5020638;28;20036;-86
2023/01/31 05:12:51;;;;;;;6.63;0.98;;;;;;;;;;5029765;28;20032;-85
2023/01/31 05:15:17;;;;;;;6.53;1.00;;;;;;;;;;5026946;28;20168;-86
2023/01/31 05:17:42;;;;;;;6.15;1.10;;;;;;;;;;5033240;28;20059;-85
2023/01/31 05:20:08;;;;;;;7.47;1.05;;;;;;;;;;5043892;28;20044;-86
2023/01/31 05:22:34;;;;;;;7.38;1.05;;;;;;;;;;5028521;28;20029;-86
2023/01/31 05:24:59;;;;;;;6.53;1.45;;;;;;;;;;5021213;28;20041;-87
2023/01/31 05:27:25;;;;;;;6.78;1.00;;;;;;;;;;5020864;28;20042;-86
2023/01/31 05:29:51;;;;;;;5.45;1.33;;;;;;;;;;5043858;28;20420;-86
2023/01/31 05:32:18;;;;;;;5.28;1.20;;;;;;;;;;5026464;28;20122;-87
2023/01/31 05:34:43;;;;;;;5.15;1.65;;;;;;;;;;5028701;28;20567;-86
2023/01/31 05:37:09;;;;;;;9.45;1.38;;;;;;;;;;5019369;28;20036;-88
2023/01/31 05:39:35;;;;;;;9.50;1.30;;;;;;;;;;5036491;28;20128;-85
2023/01/31 05:42:00;;;;;;;9.95;1.63;;;;;;;;;;5027561;28;20072;-86
2023/01/31 05:44:26;;;;;;;11.90;1.70;;;;;;;;;;5029495;28;20500;-84
2023/01/31 05:46:51;;;;;;;7.05;1.08;;;;;;;;;;5028601;28;20511;-86
2023/01/31 05:49:17;;;;;;;7.45;1.40;;;;;;;;;;5022272;28;20029;-84
2023/01/31 05:51:42;;;;;;;5.05;1.05;;;;;;;;;;5023504;28;20091;-84
2023/01/31 05:54:10;;;;;;;6.35;1.52;;;;;;;;;;5033494;28;20079;-84
2023/01/31 05:56:35;;;;;;;6.93;1.58;;;;;;;;;;5033126;28;20045;-84
2023/01/31 05:59:02;;;;;;;5.32;1.20;;;;;;;;;;5028734;28;20283;-85
2023/01/31 06:01:28;;;;;;;6.00;1.42;;;;;;;;;;5028267;28;20037;-84
2023/01/31 06:03:54;;;;;;;9.68;2.03;;;;;;;;;;5026881;28;20029;-85
2023/01/31 06:06:20;;;;;;;7.60;1.40;;;;;;;;;;5044669;28;20044;-86
2023/01/31 06:08:45;;;;;;;6.65;1.35;;;;;;;;;;5033589;28;20151;-83
2023/01/31 06:11:11;;;;;;;5.30;1.25;;;;;;;;;;5025155;28;20120;-85
2023/01/31 06:13:38;;;;;;;7.57;1.33;;;;;;;;;;5022222;28;20039;-85
2023/01/31 06:16:04;;;;;;;7.38;1.48;;;;;;;;;;5026326;28;20047;-84
2023/01/31 06:18:30;;;;;;;7.07;1.02;;;;;;;;;;5029436;28;20155;-85
2023/01/31 06:20:55;;;;;;;8.05;1.77;;;;;;;;;;5039928;28;20057;-85
2023/01/31 06:23:20;;;;;;;6.53;1.23;;;;;;;;;;5048317;28;20044;-84
2023/01/31 06:25:50;;;;;;;5.10;1.30;;;;;;;;;;5025897;28;20036;-84
2023/01/31 06:28:16;;;;;;;8.68;1.10;;;;;;;;;;5039157;28;20029;-85
2023/01/31 06:30:41;;;;;;;5.60;1.23;;;;;;;;;;5046892;28;20040;-84
2023/01/31 06:33:08;;;;;;;6.35;1.10;;;;;;;;;;5044357;28;20037;-85
2023/01/31 06:35:34;;;;;;;7.18;1.40;;;;;;;;;;5023113;28;20530;-85
2023/01/31 06:37:59;;;;;;;6.25;1.10;;;;;;;;;;5036470;28;20072;-85
2023/01/31 06:40:25;;;;;;;11.18;1.98;;;;;;;;;;5020525;28;20739;-84
2023/01/31 06:42:50;;;;;;;8.25;1.02;;;;;;;;;;5027970;28;20036;-86
2023/01/31 06:45:16;;;;;;;5.88;1.52;;;;;;;;;;5027491;28;20032;-85
2023/01/31 06:47:43;;;;;;;5.80;1.55;;;;;;;;;;5037180;28;20037;-84
2023/01/31 06:50:10;;;;;;;5.07;1.52;;;;;;;;;;5018592;28;20412;-84
2023/01/31 06:52:36;;;;;;;5.47;1.63;;;;;;;;;;5015327;28;20038;-84
2023/01/31 06:55:01;;;;;;;3.80;0.70;;;;;;;;;;5025717;28;20400;-84
2023/01/31 06:57:26;;;;;;;5.78;1.38;;;;;;;;;;5036812;28;20033;-85
2023/01/31 06:59:52;;;;;;;5.30;1.08;;;;;;;;;;5027865;28;20505;-85
2023/01/31 07:02:17;;;;;;;6.00;0.90;;;;;;;;;;5023539;28;20029;-84
2023/01/31 07:04:43;;;;;;;5.38;1.50;;;;;;;;;;5037125;28;20058;-84
2023/01/31 07:07:08;;;;;;;3.95;0.95;;;;;;;;;;5026582;28;20045;-83
2023/01/31 07:09:33;;;;;;;6.75;1.50;;;;;;;;;;5021032;28;20025;-83
2023/01/31 07:12:01;;;;;;;7.78;1.35;;;;;;;;;;5036098;28;20077;-83
2023/01/31 07:14:26;;;;;;;5.43;1.00;;;;;;;;;;5023195;28;20040;-83
2023/01/31 07:16:51;;;;;;;6.00;1.75;;;;;;;;;;5026342;28;20428;-83
2023/01/31 07:19:17;;;;;;;6.13;1.13;;;;;;;;;;5027378;28;20115;-84
2023/01/31 07:21:43;;;;;;;6.75;1.10;;;;;;;;;;5033301;28;20094;-85
2023/01/31 07:24:08;;;;;;;7.25;1.48;;;;;;;;;;5015535;28;20045;-84
2023/01/31 07:26:34;;;;;;;4.18;0.90;;;;;;;;;;5024156;28;20145;-83
2023/01/31 07:28:59;;;;;;;9.85;1.48;;;;;;;;;;5027021;28;20405;-84
2023/01/31 07:31:24;;;;;;;6.15;1.20;;;;;;;;;;5018604;28;20033;-83
2023/01/31 07:33:50;;;;;;;4.80;1.30;;;;;;;;;;5046062;28;20089;-85
2023/01/31 07:36:18;;;;;;;6.10;1.10;;;;;;;;;;5046526;28;20037;-84
2023/01/31 07:38:44;;;;;;;10.35;1.90;;;;;;;;;;5048383;28;20067;-84
2023/01/31 07:41:10;;;;;;;5.70;1.45;;;;;;;;;;5030180;28;20076;-87
2023/01/31 07:43:35;;;;;;;10.57;1.92;;;;;;;;;;5048995;28;20036;-85
2023/01/31 07:46:01;;;;;;;7.45;1.50;;;;;;;;;;5030031;28;20055;-86
2023/01/31 07:48:26;;;;;;;4.75;1.00;;;;;;;;;;5033027;28;20036;-85
2023/01/31 07:51:00;;;;;;;6.57;1.40;;;;;;;;;;5024626;28;20371;-85
2023/01/31 07:53:30;;;;;;;9.43;1.83;;;;;;;;;;5038629;28;20044;-85
2023/01/31 07:56:13;;;;;;;7.95;1.45;;;;;;;;;;5021528;28;20040;-84
2023/01/31 07:58:40;;;;;;;7.20;1.70;;;;;;;;;;5021102;28;20036;-85
2023/01/31 08:03:50;;;;;;;6.28;1.20;;;;;;;;;;5052855;28;20440;-85
2023/01/31 08:06:15;;;;;;;5.22;1.17;;;;;;;;;;5047332;28;20048;-84
2023/01/31 08:08:42;;;;;;;5.43;1.40;;;;;;;;;;5034970;28;20035;-85
2023/01/31 08:11:07;;;;;;;3.63;1.15;;;;;;;;;;5030197;28;20041;-87
2023/01/31 08:13:37;;;;;;;4.80;1.55;;;;;;;;;;5037970;28;20047;-85
2023/01/31 08:16:04;;;;;;;10.10;1.67;;;;;;;;;;5030741;28;20033;-86
2023/01/31 08:18:30;;;;;;;7.00;1.40;;;;;;;;;;5025630;28;20060;-85
2023/01/31 08:20:56;;;;;;;7.95;1.38;;;;;;;;;;5020615;28;20056;-86
2023/01/31 08:23:22;;;;;;;3.90;1.08;;;;;;;;;;5043792;28;20032;-84
2023/01/31 08:25:47;;;;;;;8.48;2.25;;;;;;;;;;5043713;28;20081;-83
2023/01/31 08:28:14;;;;;;;5.43;1.23;;;;;;;;;;5029924;28;20763;-84
2023/01/31 08:30:43;;;;;;;6.95;1.52;;;;;;;;;;5026305;28;20090;-84
2023/01/31 08:33:10;;;;;;;8.32;1.50;;;;;;;;;;5046420;28;20049;-86
2023/01/31 08:35:36;;;;;;;7.47;1.30;;;;;;;;;;5033674;28;20036;-85
2023/01/31 08:38:21;;;;;;;6.40;1.35;;;;;;;;;;5045237;28;20070;-85
2023/01/31 08:40:47;;;;;;;8.95;2.83;;;;;;;;;;4999814;28;20479;-85
2023/01/31 08:43:12;;;;;;;9.15;1.50;;;;;;;;;;4985551;28;20033;-86
2023/01/31 08:45:38;;;;;;;7.03;1.40;;;;;;;;;;5013114;28;20072;-85
2023/01/31 08:48:04;;;;;;;6.18;1.23;;;;;;;;;;5022727;28;20044;-85
2023/01/31 08:50:30;;;;;;;6.32;1.42;;;;;;;;;;5022420;28;20120;-84
2023/01/31 08:52:59;;;;;;;5.97;1.63;;;;;;;;;;5000968;28;20110;-85
2023/01/31 08:55:25;;;;;;;9.93;1.77;;;;;;;;;;4979454;28;23310;-84
2023/01/31 08:57:52;;;;;;;12.80;1.93;;;;;;;;;;5022533;28;20041;-84
2023/01/31 09:00:18;;;;;;;7.68;1.67;;;;;;;;;;4988261;28;20124;-84
2023/01/31 09:02:47;;;;;;;10.07;2.22;;;;;;;;;;5002298;28;20523;-84
2023/01/31 09:05:12;;;;;;;7.35;2.00;;;;;;;;;;4996027;28;20033;-85
2023/01/31 09:07:38;;;;;;;6.45;1.40;;;;;;;;;;5022580;28;20048;-84
2023/01/31 09:10:04;;;;;;;6.13;1.77;;;;;;;;;;4998811;28;20045;-85
2023/01/31 09:12:29;;;;;;;7.50;1.25;;;;;;;;;;4989016;28;20576;-85
2023/01/31 09:14:55;;;;;;;6.35;1.63;;;;;;;;;;4981654;28;20127;-85
2023/01/31 09:17:20;;;;;;;9.40;1.77;;;;;;;;;;4998099;28;20447;-84
2023/01/31 09:19:47;;;;;;;7.78;1.90;;;;;;;;;;5028552;28;20033;-85
2023/01/31 09:22:13;;;;;;;8.00;1.50;;;;;;;;;;5019602;28;20029;-84
2023/01/31 09:24:38;;;;;;;10.10;1.70;;;;;;;;;;5027587;28;20041;-84
2023/01/31 09:27:04;;;;;;;10.00;1.67;;;;;;;;;;5046645;28;20064;-86
2023/01/31 09:29:31;;;;;;;8.13;1.60;;;;;;;;;;5047052;28;20044;-85
2023/01/31 09:31:56;;;;;;;4.40;1.53;;;;;;;;;;5046783;28;20049;-85
2023/01/31 09:34:23;;;;;;;5.07;1.58;;;;;;;;;;5047265;28;20075;-85
2023/01/31 09:36:49;;;;;;;6.43;1.65;;;;;;;;;;5035163;28;20041;-85
2023/01/31 09:39:15;;;;;;;5.45;1.60;;;;;;;;;;5021861;28;20067;-86
2023/01/31 09:41:44;;;;;;;6.93;2.03;;;;;;;;;;5030903;28;20440;-85
2023/01/31 09:44:10;;;;;;;5.75;1.40;;;;;;;;;;5047975;28;20043;-85
2023/01/31 09:46:40;;;;;;;8.85;1.58;;;;;;;;;;5014376;28;20050;-85
2023/01/31 09:49:09;;;;;;;7.20;1.60;;;;;;;;;;5026406;28;20040;-85
2023/01/31 09:51:37;;;;;;;9.73;1.67;;;;;;;;;;5035897;28;20033;-85
2023/01/31 09:54:06;;;;;;;7.78;1.80;;;;;;;;;;5028430;28;20797;-86
2023/01/31 09:56:59;;;;;;;8.00;2.25;;;;;;;;;;5050043;28;20102;-85
2023/01/31 09:59:31;;;;;;;7.15;1.67;;;;;;;;;;5034904;28;20036;-85
2023/01/31 10:02:23;;;;;;;5.22;1.20;;;;;;;;;;5025239;28;20404;-85
2023/01/31 10:05:16;;;;;;;5.88;1.38;;;;;;;;;;5058916;28;20119;-84
2023/01/31 10:08:00;;;;;;;8.50;1.40;;;;;;;;;;5040322;28;20440;-83
2023/01/31 10:10:38;;;;;;;3.70;1.20;;;;;;;;;;5056726;28;20040;-85
2023/01/31 10:13:16;;;;;;;5.90;1.52;;;;;;;;;;5041540;28;20515;-85
2023/01/31 10:15:46;;;;;;;5.20;1.27;;;;;;;;;;5037880;28;20068;-85
2023/01/31 10:18:32;;;;;;;6.28;1.20;;;;;;;;;;5034961;28;20040;-86
2023/01/31 10:21:05;;;;;;;8.55;1.48;;;;;;;;;;5017717;28;20065;-86
2023/01/31 10:23:39;;;;;;;11.30;1.63;;;;;;;;;;5025675;28;20119;-87
2023/01/31 10:26:22;;;;;;;8.93;1.60;;;;;;;;;;5012485;28;20037;-84
2023/01/31 10:29:00;;;;;;;7.65;1.50;;;;;;;;;;5062551;28;20024;-84
2023/01/31 10:31:37;;;;;;;6.88;1.38;;;;;;;;;;5048587;28;20063;-86
2023/01/31 10:34:23;;;;;;;6.05;2.13;;;;;;;;;;5012297;28;20066;-86
2023/01/31 10:37:06;;;;;;;9.80;1.38;;;;;;;;;;5018947;28;20517;-86
2023/01/31 10:39:43;;;;;;;7.05;1.58;;;;;;;;;;5038632;28;20036;-83
2023/01/31 10:42:24;;;;;;;5.82;1.75;;;;;;;;;;5042936;28;20594;-85
2023/01/31 10:44:55;;;;;;;6.65;1.42;;;;;;;;;;5015919;28;20039;-85
2023/01/31 10:47:27;;;;;;;7.93;1.70;;;;;;;;;;5052226;28;20028;-85
2023/01/31 10:49:52;;;;;;;10.80;1.83;;;;;;;;;;5039326;28;20032;-85
2023/01/31 10:52:45;;;;;;;9.55;1.70;;;;;;;;;;5047740;28;20040;-85
2023/01/31 10:55:55;;;;;;;9.93;2.15;;;;;;;;;;5046396;28;20774;-85
2023/01/31 10:58:21;;;;;;;5.30;1.52;;;;;;;;;;5000583;28;20038;-84
2023/01/31 11:00:48;;;;;;;10.20;2.03;;;;;;;;;;5029077;28;20033;-84
2023/01/31 11:03:13;;;;;;;11.43;2.22;;;;;;;;;;5040357;28;20345;-85
2023/01/31 11:05:51;;;;;;;6.72;2.47;;;;;;;;;;5027179;28;20055;-85
2023/01/31 11:08:25;;;;;;;;;;;;;;;;;;5019533;28;20028;-84
2023/01/31 11:10:53;;;;;;;4.68;1.30;;;;;;;;;;5054662;28;20365;-85
2023/01/31 11:13:19;;;;;;;8.60;1.80;;;;;;;;;;5036397;28;20041;-84
2023/01/31 11:15:47;;;;;;;9.70;2.03;;;;;;;;;;5034951;28;20056;-84
2023/01/31 11:18:45;;;;;;;8.27;1.98;;;;;;;;;;5027766;28;20045;-86
2023/01/31 11:21:18;;;;;;;9.65;2.25;;;;;;;;;;5020322;28;20036;-83
2023/01/31 11:23:44;;;;;;;6.28;1.60;;;;;;;;;;5047037;28;20087;-85
2023/01/31 11:26:11;;;;;;;7.68;1.88;;;;;;;;;;5022246;28;20465;-84
2023/01/31 11:28:40;;;;;;;8.53;2.47;;;;;;;;;;5047752;28;20040;-85
2023/01/31 11:31:14;;;;;;;7.70;2.20;;;;;;;;;;5002714;28;20128;-84
2023/01/31 11:33:46;;;;;;;10.07;2.33;;;;;;;;;;5024968;28;20044;-84
2023/01/31 11:36:23;;;;;;;8.23;2.50;;;;;;;;;;5029430;28;20156;-84
2023/01/31 11:38:49;;;;;;;9.52;2.72;;;;;;;;;;5025037;28;20036;-83
2023/01/31 11:41:36;;;;;;;9.80;2.63;;;;;;;;;;5034802;28;20068;-84
2023/01/31 11:44:11;;;;;;;9.48;2.85;;;;;;;;;;5023088;28;20492;-84
2023/01/31 11:46:52;;;;;;;5.47;2.33;;;;;;;;;;5037568;28;20037;-84
2023/01/31 11:49:35;;;;;;;11.52;2.50;;;;;;;;;;5031206;28;20056;-83
2023/01/31 11:52:16;;;;;;;11.50;3.05;;;;;;;;;;5021862;28;20378;-85
2023/01/31 11:54:47;;;;;;;7.68;2.40;;;;;;;;;;5023510;28;20044;-85
2023/01/31 11:57:15;;;;;;;8.88;2.58;;;;;;;;;;5025622;28;20058;-84
2023/01/31 11:59:40;;;;;;;;;;;;;;;;;;5029820;28;21036;-84
2023/01/31 12:02:37;;;;;;;7.88;2.28;;;;;;;;;;5034720;28;19947;-84
2023/01/31 12:05:09;;;;;;;;;;;;;;;;;;5023505;28;20047;-84
2023/01/31 12:07:52;;;;;;;8.50;2.30;;;;;;;;;;5037808;28;20439;-85
2023/01/31 12:10:41;;;;;;;7.10;1.88;;;;;;;;;;5019256;28;20102;-84
2023/01/31 12:13:18;;;;;;;11.65;2.38;;;;;;;;;;5052268;28;20511;-84
2023/01/31 12:16:00;;;;;;;10.13;2.28;;;;;;;;;;5023131;28;20354;-85
2023/01/31 12:18:42;;;;;;;9.93;2.78;;;;;;;;;;5022325;28;20086;-85
2023/01/31 12:21:15;;;;;;;7.10;2.20;;;;;;;;;;5023349;28;20578;-86
2023/01/31 12:24:06;;;;;;;9.85;2.50;;;;;;;;;;5033629;28;21022;-85
2023/01/31 12:26:55;;;;;;;11.73;2.90;;;;;;;;;;5047081;28;20033;-84
2023/01/31 12:29:39;;;;;;;9.25;2.20;;;;;;;;;;5039484;28;20545;-85
2023/01/31 12:32:07;;;;;;;8.55;2.60;;;;;;;;;;5050796;28;20215;-84
2023/01/31 12:34:44;;;;;;;8.10;2.50;;;;;;;;;;5045145;28;20029;-86
2023/01/31 12:37:24;;;;;;;6.18;2.42;;;;;;;;;;5035912;28;20496;-84
2023/01/31 12:40:02;;;;;;;8.77;2.67;;;;;;;;;;5033627;28;20082;-84
2023/01/31 12:42:42;;;;;;;7.53;2.45;;;;;;;;;;5036706;28;20040;-85
2023/01/31 12:45:23;;;;;;;7.93;2.90;;;;;;;;;;5050646;28;20036;-84
2023/01/31 12:47:57;;;;;;;9.25;3.05;;;;;;;;;;5055247;28;20039;-85
2023/01/31 12:50:48;;;;;;;14.18;3.05;;;;;;;;;;5043601;28;20040;-84
2023/01/31 12:53:25;;;;;;;10.65;3.50;;;;;;;;;;5020148;28;20040;-84
2023/01/31 12:55:53;;;;;;;8.85;3.53;;;;;;;;;;5051502;28;20470;-84
2023/01/31 12:58:31;;;;;;;8.15;3.58;;;;;;;;;;5035842;28;20075;-84
2023/01/31 13:01:16;;;;;;;10.35;3.90;;;;;;;;;;5041717;28;20553;-84
2023/01/31 13:04:03;;;;;;;11.02;3.97;;;;;;;;;;5029866;28;20519;-86
2023/01/31 13:06:37;;;;;;;13.27;4.15;;;;;;;;;;5043863;28;20238;-84
2023/01/31 13:09:19;;;;;;;7.55;3.55;;;;;;;;;;5035098;28;20067;-83
2023/01/31 13:11:55;;;;;;;8.95;3.63;;;;;;;;;;5044319;28;20044;-83
2023/01/31 13:14:22;;;;;;;10.98;4.93;;;;;;;;;;5037049;28;20515;-83
2023/01/31 13:16:53;;;;;;;7.85;3.70;;;;;;;;;;5027972;28;20033;-83
2023/01/31 13:19:25;;;;;;;8.00;3.88;;;;;;;;;;5028198;28;20033;-83
2023/01/31 13:21:54;;;;;;;11.30;4.43;;;;;;;;;;5027298;28;20036;-84
2023/01/31 13:24:25;;;;;;;12.63;4.32;;;;;;;;;;5046644;28;20551;-84
2023/01/31 13:27:15;;;;;;;8.95;4.30;;;;;;;;;;5045484;28;20480;-83
2023/01/31 13:30:17;;;;;;;13.57;4.35;;;;;;;;;;5034650;28;20028;-85
2023/01/31 13:32:48;;;;;;;11.98;4.03;;;;;;;;;;4957051;28;20059;-85
2023/01/31 13:35:24;;;;;;;8.43;3.58;;;;;;;;;;5026145;28;20041;-83
2023/01/31 13:37:53;;;;;;;8.02;3.88;;;;;;;;;;5034674;28;20379;-83
2023/01/31 13:40:24;;;;;;;8.27;3.67;;;;;;;;;;5022919;28;20033;-84
2023/01/31 13:42:52;;;;;;;12.45;4.28;;;;;;;;;;5045733;28;20483;-84
2023/01/31 13:45:26;;;;;;;10.20;4.22;;;;;;;;;;5019417;28;20055;-85
2023/01/31 13:47:58;;;;;;;6.70;3.33;;;;;;;;;;5036139;28;20060;-85
2023/01/31 13:50:43;;;;;;;7.35;3.40;;;;;;;;;;5035235;28;20025;-84
2023/01/31 13:53:47;;;;;;;7.68;3.15;;;;;;;;;;5028746;28;20773;-83
2023/01/31 13:56:20;;;;;;;6.03;3.58;;;;;;;;;;5028334;28;20040;-84
2023/01/31 13:58:47;;;;;;;7.32;3.30;;;;;;;;;;5017652;28;20043;-82
2023/01/31 14:01:19;;;;;;;7.00;3.28;;;;;;;;;;5028212;28;20442;-84
2023/01/31 14:04:09;;;;;;;6.63;3.50;;;;;;;;;;5022598;28;20169;-84
2023/01/31 14:07:05;;;;;;;8.15;3.33;;;;;;;;;;5053105;28;20119;-84
2023/01/31 14:09:33;;;;;;;5.90;3.42;;;;;;;;;;5051263;28;20041;-84
2023/01/31 14:12:21;;;;;;;9.35;3.70;;;;;;;;;;5029678;28;20580;-84
2023/01/31 14:14:47;;;;;;;7.22;3.40;;;;;;;;;;5051611;28;20428;-83
2023/01/31 14:17:14;;;;;;;8.38;3.47;;;;;;;;;;5052263;28;20025;-83
2023/01/31 14:19:42;;;;;;;8.90;3.60;;;;;;;;;;5042581;28;20025;-84
2023/01/31 14:22:43;;;;;;;6.30;3.00;;;;;;;;;;5037113;28;20049;-84
2023/01/31 14:25:08;;;;;;;5.18;2.83;;;;;;;;;;4986977;28;20041;-83
2023/01/31 14:27:36;;;;;;;7.25;3.22;;;;;;;;;;5027276;28;20689;-85
2023/01/31 14:30:04;;;;;;;6.38;3.13;;;;;;;;;;5043289;28;20107;-85
2023/01/31 14:33:11;;;;;;;5.05;3.00;;;;;;;;;;5045148;28;20049;-84
2023/01/31 14:35:53;;;;;;;8.05;3.40;;;;;;;;;;4964968;28;20203;-84
2023/01/31 14:38:50;;;;;;;10.98;3.55;;;;;;;;;;4965547;28;20039;-84
2023/01/31 14:41:32;;;;;;;6.47;2.83;;;;;;;;;;4958326;28;20068;-84
2023/01/31 14:44:29;;;;;;;6.18;3.08;;;;;;;;;;4984908;28;20121;-84
2023/01/31 14:47:51;;;;;;;6.43;2.83;;;;;;;;;;4935186;28;20035;-84
2023/01/31 14:50:54;;;;;;;5.85;3.47;;;;;;;;;;4927261;29;20036;-86
2023/01/31 14:53:43;;;;;;;6.75;3.13;;;;;;;;;;4985895;28;20442;-83
2023/01/31 14:56:33;;;;;;;5.10;3.05;;;;;;;;;;4968759;28;20521;-83
2023/01/31 14:59:06;;;;;;;6.85;2.90;;;;;;;;;;4968823;28;20046;-84
2023/01/31 15:01:34;;;;;;;7.32;3.08;;;;;;;;;;4963128;28;20034;-84
2023/01/31 15:04:02;;;;;;;8.48;3.20;;;;;;;;;;4953987;28;20478;-82
2023/01/31 15:06:29;;;;;;;9.15;3.58;;;;;;;;;;4984663;28;20566;-83
2023/01/31 15:09:26;;;;;;;5.90;3.10;;;;;;;;;;5016551;28;20106;-83
2023/01/31 15:11:54;;;;;;;8.38;3.40;;;;;;;;;;5035445;28;20048;-82
2023/01/31 15:14:31;;;;;;;7.03;3.95;;;;;;;;;;5026492;28;20037;-84
2023/01/31 15:17:02;;;;;;;6.88;3.72;;;;;;;;;;5035132;28;20037;-83
2023/01/31 15:19:39;;;;;;;5.95;3.47;;;;;;;;;;5011822;28;20037;-83
2023/01/31 15:22:07;;;;;;;6.78;3.78;;;;;;;;;;5033853;28;20537;-85